createdAt,value
2023-03-27T00:00:01.026Z,21.30
2023-03-27T00:04:00.982Z,21.31
2023-03-27T00:08:00.881Z,21.31
2023-03-27T00:12:00.879Z,21.29
2023-03-27T00:16:00.773Z,21.29
2023-03-27T00:20:00.702Z,21.28
2023-03-27T00:24:00.628Z,21.28
2023-03-27T00:28:00.812Z,21.26
2023-03-27T00:32:00.971Z,21.26
2023-03-27T00:36:01.091Z,21.27
2023-03-27T00:40:01.251Z,21.26
2023-03-27T00:44:01.301Z,21.27
2023-03-27T00:48:01.557Z,21.27
2023-03-27T00:52:01.588Z,21.26
2023-03-27T00:56:01.741Z,21.27
2023-03-27T01:00:01.827Z,21.25
2023-03-27T01:04:01.784Z,21.25
2023-03-27T01:08:02.011Z,21.25
2023-03-27T01:12:01.815Z,21.24
2023-03-27T01:16:01.835Z,21.24
2023-03-27T01:20:01.781Z,21.25
2023-03-27T01:24:01.731Z,21.23
2023-03-27T01:28:01.726Z,21.23
2023-03-27T01:32:01.780Z,21.23
2023-03-27T01:36:02.068Z,21.23
2023-03-27T01:40:02.176Z,21.23
2023-03-27T01:44:02.185Z,21.23
2023-03-27T01:48:02.262Z,21.22
2023-03-27T01:52:02.155Z,21.22
2023-03-27T01:56:02.108Z,21.21
2023-03-27T02:00:17.510Z,21.22
2023-03-27T02:04:02.990Z,21.23
2023-03-27T02:08:01.958Z,21.21
2023-03-27T02:12:01.869Z,21.21
2023-03-27T02:16:01.890Z,21.20
2023-03-27T02:20:01.856Z,21.18
2023-03-27T02:24:01.813Z,21.18
2023-03-27T02:28:01.764Z,21.18
2023-03-27T02:32:01.765Z,21.18
2023-03-27T02:36:01.750Z,21.18
2023-03-27T02:40:01.715Z,21.18
2023-03-27T02:44:01.653Z,21.18
2023-03-27T02:48:01.642Z,21.17
2023-03-27T02:52:01.585Z,21.17
2023-03-27T02:56:01.600Z,21.17
2023-03-27T03:00:01.488Z,21.17
2023-03-27T03:04:01.462Z,21.17
2023-03-27T03:08:01.417Z,21.17
2023-03-27T03:12:01.370Z,21.16
2023-03-27T03:16:01.325Z,21.17
2023-03-27T03:20:01.268Z,21.18
2023-03-27T03:24:01.350Z,21.17
2023-03-27T03:28:01.230Z,21.16
2023-03-27T03:32:01.186Z,21.15
2023-03-27T03:36:01.192Z,21.15
2023-03-27T03:40:01.179Z,21.14
2023-03-27T03:44:01.128Z,21.15
2023-03-27T03:48:01.163Z,21.14
2023-03-27T03:52:03.785Z,21.15
2023-03-27T03:56:01.084Z,21.14
2023-03-27T04:00:01.051Z,21.15
2023-03-27T04:04:01.008Z,21.15
2023-03-27T04:08:00.957Z,21.15
2023-03-27T04:12:00.882Z,21.16
2023-03-27T04:16:00.903Z,21.13
2023-03-27T04:20:00.801Z,21.13
2023-03-27T04:24:00.683Z,21.13
2023-03-27T04:28:00.625Z,21.11
2023-03-27T04:32:00.526Z,21.11
2023-03-27T04:36:05.498Z,21.11
2023-03-27T04:40:01.386Z,21.13
2023-03-27T04:44:00.387Z,21.13
2023-03-27T04:48:00.385Z,21.12
2023-03-27T04:52:00.232Z,21.10
2023-03-27T04:56:00.145Z,21.26
2023-03-27T05:00:00.334Z,21.26
2023-03-27T05:04:00.554Z,21.23
2023-03-27T05:08:00.444Z,21.22
2023-03-27T05:12:00.340Z,21.20
2023-03-27T05:16:00.316Z,21.18
2023-03-27T05:20:00.239Z,21.22
2023-03-27T05:24:00.122Z,21.27
2023-03-27T05:28:00.074Z,21.29
2023-03-27T05:32:01.464Z,21.29
2023-03-27T05:35:59.958Z,21.30
2023-03-27T05:39:59.780Z,21.19
2023-03-27T05:43:59.930Z,21.19
2023-03-27T05:47:59.723Z,21.27
2023-03-27T05:51:59.917Z,21.29
2023-03-27T05:56:03.197Z,21.32
2023-03-27T05:59:59.895Z,21.37
2023-03-27T06:03:59.442Z,21.38
2023-03-27T06:07:59.408Z,21.43
2023-03-27T06:11:59.224Z,21.45
2023-03-27T06:15:59.554Z,21.46
2023-03-27T06:19:59.121Z,21.47
2023-03-27T06:23:59.043Z,21.46
2023-03-27T06:27:59.118Z,21.44
2023-03-27T06:31:59.262Z,21.47
2023-03-27T06:36:00.349Z,21.51
2023-03-27T06:39:59.347Z,21.59
2023-03-27T06:43:59.273Z,21.59
2023-03-27T06:48:00.645Z,21.57
2023-03-27T06:52:00.404Z,21.67
2023-03-27T06:55:59.553Z,21.67
2023-03-27T07:00:01.641Z,21.67
2023-03-27T07:03:59.384Z,21.60
2023-03-27T07:08:03.264Z,21.56
2023-03-27T07:11:59.919Z,21.54
2023-03-27T07:15:58.864Z,21.52
2023-03-27T07:19:59.428Z,21.53
2023-03-27T07:23:58.853Z,21.55
2023-03-27T07:27:58.945Z,21.53
2023-03-27T07:32:01.510Z,21.55
2023-03-27T07:35:59.376Z,21.66
2023-03-27T07:39:58.943Z,21.65
2023-03-27T07:43:58.432Z,21.73
2023-03-27T07:47:58.264Z,21.77
2023-03-27T07:51:58.442Z,21.80
2023-03-27T07:55:58.426Z,21.82
2023-03-27T07:59:58.040Z,21.81
2023-03-27T08:03:58.609Z,21.81
2023-03-27T08:07:58.200Z,21.84
2023-03-27T08:11:58.347Z,21.77
2023-03-27T08:15:58.642Z,21.73
2023-03-27T08:19:58.579Z,21.75
2023-03-27T08:23:58.739Z,21.76
2023-03-27T08:27:58.913Z,21.76
2023-03-27T08:31:58.896Z,21.79
2023-03-27T08:35:59.746Z,21.75
2023-03-27T08:39:59.445Z,21.77
2023-03-27T08:43:59.255Z,21.82
2023-03-27T08:47:59.297Z,21.92
2023-03-27T08:51:59.508Z,21.84
2023-03-27T08:55:59.491Z,21.81
2023-03-27T08:59:59.354Z,21.83
2023-03-27T09:03:59.522Z,21.89
2023-03-27T09:07:59.361Z,21.95
2023-03-27T09:11:59.390Z,21.92
2023-03-27T09:15:59.820Z,21.89
2023-03-27T09:19:59.323Z,21.87
2023-03-27T09:23:59.336Z,21.90
2023-03-27T09:27:59.477Z,21.95
2023-03-27T09:31:59.409Z,21.97
2023-03-27T09:35:59.784Z,21.91
2023-03-27T09:39:59.617Z,21.96
2023-03-27T09:43:59.610Z,22.02
2023-03-27T09:47:59.478Z,22.11
2023-03-27T09:51:59.551Z,22.14
2023-03-27T09:56:01.001Z,22.18
2023-03-27T09:59:59.454Z,22.17
2023-03-27T10:03:59.300Z,22.15
2023-03-27T10:07:59.169Z,22.04
2023-03-27T10:11:59.083Z,21.96
2023-03-27T10:15:59.508Z,22.03
2023-03-27T10:19:59.013Z,21.97
2023-03-27T10:23:58.866Z,21.96
2023-03-27T10:27:58.759Z,21.94
2023-03-27T10:31:59.054Z,21.97
2023-03-27T10:35:59.140Z,22.04
2023-03-27T10:39:58.550Z,22.03
2023-03-27T10:43:58.520Z,22.10
2023-03-27T10:47:58.491Z,22.16
2023-03-27T10:51:58.320Z,22.22
2023-03-27T10:55:58.197Z,22.16
2023-03-27T10:59:58.155Z,22.18
2023-03-27T11:03:58.553Z,22.16
2023-03-27T11:07:57.995Z,22.17
2023-03-27T11:11:58.030Z,22.16
2023-03-27T11:15:57.770Z,22.16
2023-03-27T11:19:57.827Z,22.22
2023-03-27T11:23:58.017Z,22.19
2023-03-27T11:27:57.571Z,22.15
2023-03-27T11:31:57.516Z,22.19
2023-03-27T11:35:57.564Z,22.25
2023-03-27T11:39:57.539Z,22.24
2023-03-27T11:43:57.275Z,22.17
2023-03-27T11:47:57.265Z,22.16
2023-03-27T11:51:57.322Z,22.16
2023-03-27T11:55:57.532Z,22.16
2023-03-27T11:59:57.175Z,22.14
2023-03-27T12:03:57.237Z,22.18
2023-03-27T12:07:57.501Z,22.19
2023-03-27T12:11:57.155Z,22.18
2023-03-27T12:15:57.513Z,22.16
2023-03-27T12:19:57.002Z,22.18
2023-03-27T12:23:57.014Z,22.19
2023-03-27T12:27:56.839Z,22.20
2023-03-27T12:31:56.796Z,22.18
2023-03-27T12:35:56.677Z,22.20
2023-03-27T12:39:56.559Z,22.20
2023-03-27T12:43:56.543Z,22.19
2023-03-27T12:47:56.647Z,22.17
2023-03-27T12:51:56.591Z,22.15
2023-03-27T12:55:56.585Z,22.12
2023-03-27T12:59:56.380Z,22.08
2023-03-27T13:03:56.382Z,22.07
2023-03-27T13:07:56.184Z,22.08
2023-03-27T13:11:56.112Z,22.07
2023-03-27T13:15:56.395Z,22.05
2023-03-27T13:19:55.962Z,22.03
2023-03-27T13:23:55.836Z,22.03
2023-03-27T13:27:55.778Z,22.07
2023-03-27T13:31:55.842Z,22.06
2023-03-27T13:35:55.981Z,22.04
2023-03-27T13:39:55.663Z,22.04
2023-03-27T13:43:55.579Z,22.05
2023-03-27T13:47:55.521Z,22.05
2023-03-27T13:51:55.435Z,22.04
2023-03-27T13:55:55.620Z,22.04
2023-03-27T13:59:55.304Z,22.04
2023-03-27T14:03:55.432Z,22.04
2023-03-27T14:07:55.354Z,22.04
2023-03-27T14:11:55.297Z,22.00
2023-03-27T14:15:55.696Z,21.98
2023-03-27T14:19:55.164Z,21.99
2023-03-27T14:23:55.096Z,22.01
2023-03-27T14:27:55.024Z,21.97
2023-03-27T14:31:54.970Z,21.95
2023-03-27T14:35:54.922Z,21.94
2023-03-27T14:39:54.761Z,21.95
2023-03-27T14:43:54.722Z,22.00
2023-03-27T14:47:54.662Z,22.02
2023-03-27T14:51:54.840Z,21.98
2023-03-27T14:55:54.866Z,21.97
2023-03-27T14:59:54.706Z,21.99
2023-03-27T15:03:54.632Z,21.98
2023-03-27T15:07:54.579Z,21.96
2023-03-27T15:11:54.510Z,21.95
2023-03-27T15:15:54.515Z,21.96
2023-03-27T15:19:54.382Z,21.96
2023-03-27T15:23:54.366Z,21.97
2023-03-27T15:27:54.251Z,21.97
2023-03-27T15:31:54.334Z,21.92
2023-03-27T15:35:54.357Z,21.91
2023-03-27T15:39:54.185Z,21.92
2023-03-27T15:43:54.171Z,21.93
2023-03-27T15:47:54.130Z,21.98
2023-03-27T15:51:54.045Z,22.01
2023-03-27T15:55:54.015Z,22.03
2023-03-27T15:59:53.981Z,21.98
2023-03-27T16:03:56.155Z,21.96
2023-03-27T16:07:53.756Z,21.95
2023-03-27T16:11:53.673Z,21.93
2023-03-27T16:15:53.618Z,21.92
2023-03-27T16:19:53.529Z,21.90
2023-03-27T16:23:53.440Z,21.88
2023-03-27T16:27:53.372Z,21.88
2023-03-27T16:31:53.307Z,21.90
2023-03-27T16:35:53.310Z,21.91
2023-03-27T16:39:53.129Z,21.89
2023-03-27T16:43:53.059Z,21.86
2023-03-27T16:47:53.563Z,21.85
2023-03-27T16:51:53.039Z,21.85
2023-03-27T16:55:53.058Z,21.82
2023-03-27T16:59:53.111Z,21.80
2023-03-27T17:03:53.046Z,21.73
2023-03-27T17:07:53.107Z,21.68
2023-03-27T17:11:53.141Z,21.64
2023-03-27T17:15:53.196Z,21.61
2023-03-27T17:19:53.309Z,21.60
2023-03-27T17:23:53.370Z,21.58
2023-03-27T17:27:53.441Z,21.59
2023-03-27T17:31:53.581Z,21.57
2023-03-27T17:35:53.689Z,21.55
2023-03-27T17:39:53.764Z,21.53
2023-03-27T17:43:53.919Z,21.51
2023-03-27T17:47:54.130Z,21.50
2023-03-27T17:51:54.177Z,21.50
2023-03-27T17:55:54.340Z,21.48
2023-03-27T17:59:54.519Z,21.47
2023-03-27T18:03:54.762Z,21.46
2023-03-27T18:07:54.868Z,21.45
2023-03-27T18:11:55.085Z,21.44
2023-03-27T18:15:55.298Z,21.44
2023-03-27T18:19:55.435Z,21.42
2023-03-27T18:23:55.613Z,21.41
2023-03-27T18:27:55.546Z,21.41
2023-03-27T18:31:55.558Z,21.40
2023-03-27T18:35:55.699Z,21.40
2023-03-27T18:39:55.374Z,21.39
2023-03-27T18:43:55.355Z,21.38
2023-03-27T18:47:55.295Z,21.37
2023-03-27T18:51:55.240Z,21.36
2023-03-27T18:55:55.254Z,21.33
2023-03-27T18:59:55.157Z,21.34
2023-03-27T19:03:55.109Z,21.34
2023-03-27T19:07:55.058Z,21.34
2023-03-27T19:11:55.003Z,21.33
2023-03-27T19:15:54.957Z,21.32
2023-03-27T19:19:54.933Z,21.33
2023-03-27T19:23:54.864Z,21.31
2023-03-27T19:27:54.810Z,21.32
2023-03-27T19:31:54.753Z,21.30
2023-03-27T19:35:54.801Z,21.30
2023-03-27T19:39:54.672Z,21.29
2023-03-27T19:43:54.789Z,21.29
2023-03-27T19:47:54.777Z,21.28
2023-03-27T19:51:54.714Z,21.27
2023-03-27T19:55:54.637Z,21.26
2023-03-27T19:59:54.608Z,21.26
2023-03-27T20:03:54.601Z,21.27
2023-03-27T20:07:54.536Z,21.24
2023-03-27T20:11:54.496Z,21.23
2023-03-27T20:15:54.426Z,21.22
2023-03-27T20:19:54.374Z,21.23
2023-03-27T20:23:54.270Z,21.22
2023-03-27T20:27:54.267Z,21.21
2023-03-27T20:31:54.303Z,21.21
2023-03-27T20:35:54.294Z,21.21
2023-03-27T20:39:54.287Z,21.19
2023-03-27T20:43:54.296Z,21.19
2023-03-27T20:47:54.341Z,21.17
2023-03-27T20:51:54.359Z,21.17
2023-03-27T20:55:59.716Z,21.17
2023-03-27T20:59:55.289Z,21.17
2023-03-27T21:03:54.216Z,21.17
2023-03-27T21:07:54.277Z,21.17
2023-03-27T21:11:54.118Z,21.14
2023-03-27T21:15:54.097Z,21.13
2023-03-27T21:19:54.082Z,21.12
2023-03-27T21:23:54.027Z,21.11
2023-03-27T21:27:54.011Z,21.11
2023-03-27T21:31:53.993Z,21.11
2023-03-27T21:35:54.212Z,21.11
2023-03-27T21:39:53.892Z,21.11
2023-03-27T21:43:53.870Z,21.10
2023-03-27T21:47:53.928Z,21.10
2023-03-27T21:51:53.859Z,21.09
2023-03-27T21:55:53.850Z,21.08
2023-03-27T21:59:53.887Z,21.06
2023-03-27T22:03:53.850Z,21.06
2023-03-27T22:07:53.975Z,21.06
2023-03-27T22:11:53.920Z,21.04
2023-03-27T22:15:54.022Z,21.03
2023-03-27T22:19:53.926Z,21.02
2023-03-27T22:23:54.005Z,21.02
2023-03-27T22:27:53.976Z,21.02
2023-03-27T22:31:54.003Z,21.03
2023-03-27T22:35:54.047Z,21.01
2023-03-27T22:39:54.070Z,21.00
2023-03-27T22:43:54.111Z,20.99
2023-03-27T22:47:54.194Z,20.97
2023-03-27T22:51:54.220Z,20.98
2023-03-27T22:55:54.266Z,20.98
2023-03-27T22:59:54.280Z,20.98
2023-03-27T23:03:54.448Z,20.97
2023-03-27T23:07:54.404Z,20.97
2023-03-27T23:11:54.450Z,20.97
2023-03-27T23:15:54.576Z,20.96
2023-03-27T23:19:54.580Z,20.96
2023-03-27T23:23:54.661Z,20.95
2023-03-27T23:27:54.681Z,20.95
2023-03-27T23:31:54.823Z,20.94
2023-03-27T23:35:54.867Z,20.94
2023-03-27T23:39:54.903Z,20.93
2023-03-27T23:43:54.968Z,20.93
2023-03-27T23:47:55.153Z,20.91
2023-03-27T23:51:55.070Z,20.92
2023-03-27T23:55:55.172Z,20.92
2023-03-27T23:59:55.261Z,20.90
